createdAt,value
2023-11-20T00:01:23.649Z,27.10
2023-11-20T00:03:52.101Z,19.63
2023-11-20T00:06:19.761Z,22.73
2023-11-20T00:08:47.188Z,22.57
2023-11-20T00:11:17.046Z,15.97
2023-11-20T00:13:44.693Z,18.20
2023-11-20T00:16:13.242Z,16.60
2023-11-20T00:18:41.240Z,22.03
2023-11-20T00:21:08.583Z,19.17
2023-11-20T00:23:36.078Z,17.47
2023-11-20T00:26:03.865Z,21.83
2023-11-20T00:28:31.522Z,23.03
2023-11-20T00:30:58.899Z,22.93
2023-11-20T00:33:26.134Z,15.90
2023-11-20T00:35:53.367Z,16.53
2023-11-20T00:38:20.696Z,16.83
2023-11-20T00:40:48.012Z,22.20
2023-11-20T00:43:15.917Z,19.53
2023-11-20T00:45:43.400Z,23.57
2023-11-20T00:48:12.287Z,21.43
2023-11-20T00:50:39.506Z,17.20
2023-11-20T00:53:06.713Z,20.93
2023-11-20T00:55:33.871Z,16.30
2023-11-20T00:58:01.071Z,13.60
2023-11-20T01:00:28.958Z,18.93
2023-11-20T01:02:56.236Z,13.20
2023-11-20T01:05:23.586Z,19.77
2023-11-20T01:07:51.351Z,16.27
2023-11-20T01:10:18.663Z,18.20
2023-11-20T01:12:45.953Z,18.43
2023-11-20T01:15:13.255Z,23.63
2023-11-20T01:17:40.947Z,17.47
2023-11-20T01:20:11.555Z,16.80
2023-11-20T01:22:38.945Z,17.07
2023-11-20T01:25:06.405Z,16.30
2023-11-20T01:27:33.811Z,16.80
2023-11-20T01:30:01.028Z,16.10
2023-11-20T01:32:28.264Z,20.53
2023-11-20T01:34:55.521Z,19.80
2023-11-20T01:37:22.988Z,16.00
2023-11-20T01:39:50.275Z,20.10
2023-11-20T01:42:17.664Z,13.70
2023-11-20T01:44:44.855Z,16.53
2023-11-20T01:47:12.966Z,17.40
2023-11-20T01:49:43.933Z,16.57
2023-11-20T01:52:11.504Z,17.90
2023-11-20T01:54:39.202Z,21.37
2023-11-20T01:57:07.602Z,20.07
2023-11-20T01:59:35.106Z,18.40
2023-11-20T02:02:02.684Z,15.20
2023-11-20T02:04:30.579Z,18.03
2023-11-20T02:06:58.164Z,12.83
2023-11-20T02:09:25.542Z,13.23
2023-11-20T02:11:52.887Z,17.63
2023-11-20T02:14:20.079Z,17.80
2023-11-20T02:16:47.293Z,13.50
2023-11-20T02:19:18.084Z,14.83
2023-11-20T02:21:48.625Z,12.67
2023-11-20T02:24:16.096Z,19.03
2023-11-20T02:26:52.835Z,19.07
2023-11-20T02:29:34.620Z,23.67
2023-11-20T02:32:01.828Z,19.70
2023-11-20T02:34:31.496Z,21.43
2023-11-20T02:37:00.369Z,18.37
2023-11-20T02:39:27.706Z,16.03
2023-11-20T02:41:55.216Z,15.70
2023-11-20T02:44:22.484Z,19.13
2023-11-20T02:46:49.668Z,23.50
2023-11-20T02:49:16.990Z,14.80
2023-11-20T02:51:44.189Z,20.87
2023-11-20T02:54:11.985Z,17.93
2023-11-20T02:56:42.987Z,17.70
2023-11-20T02:59:10.139Z,12.90
2023-11-20T03:01:37.662Z,16.13
2023-11-20T03:04:05.834Z,14.13
2023-11-20T03:06:33.134Z,19.00
2023-11-20T03:09:00.322Z,11.63
2023-11-20T03:11:27.996Z,10.37
2023-11-20T03:13:55.282Z,13.60
2023-11-20T03:16:22.619Z,16.83
2023-11-20T03:18:49.932Z,13.97
2023-11-20T03:21:17.491Z,15.90
2023-11-20T03:23:45.261Z,12.00
2023-11-20T03:26:12.440Z,13.40
2023-11-20T03:28:39.616Z,15.23
2023-11-20T03:31:06.869Z,13.53
2023-11-20T03:33:34.238Z,15.80
2023-11-20T03:36:01.382Z,14.63
2023-11-20T03:38:28.653Z,14.97
2023-11-20T03:40:55.965Z,16.30
2023-11-20T03:43:24.457Z,14.90
2023-11-20T03:45:51.767Z,16.27
2023-11-20T03:48:19.818Z,19.67
2023-11-20T03:50:47.111Z,17.10
2023-11-20T03:53:14.367Z,15.10
2023-11-20T03:55:41.654Z,13.63
2023-11-20T03:58:09.076Z,15.87
2023-11-20T04:00:36.402Z,16.33
2023-11-20T04:03:03.882Z,17.30
2023-11-20T04:05:31.246Z,23.33
2023-11-20T04:07:58.457Z,18.53
2023-11-20T04:10:25.631Z,11.80
2023-11-20T04:12:52.891Z,18.37
2023-11-20T04:15:20.099Z,15.80
2023-11-20T04:17:47.518Z,13.97
2023-11-20T04:20:15.588Z,18.30
2023-11-20T04:22:43.080Z,17.30
2023-11-20T04:25:10.250Z,13.60
2023-11-20T04:27:37.505Z,13.57
2023-11-20T04:30:06.188Z,14.43
2023-11-20T04:32:33.480Z,12.90
2023-11-20T04:35:00.670Z,16.50
2023-11-20T04:37:28.028Z,12.07
2023-11-20T04:39:55.851Z,18.43
2023-11-20T04:42:23.111Z,14.53
2023-11-20T04:44:50.266Z,17.23
2023-11-20T04:47:17.434Z,14.73
2023-11-20T04:49:44.575Z,16.80
2023-11-20T04:52:11.809Z,14.07
2023-11-20T04:54:39.062Z,15.63
2023-11-20T04:57:06.373Z,14.23
2023-11-20T04:59:33.512Z,14.73
2023-11-20T05:02:00.730Z,15.20
2023-11-20T05:04:30.600Z,18.00
2023-11-20T05:06:57.801Z,10.53
2023-11-20T05:09:25.103Z,15.70
2023-11-20T05:11:52.462Z,18.23
2023-11-20T05:14:19.785Z,13.07
2023-11-20T05:16:46.972Z,13.70
2023-11-20T05:19:14.248Z,14.53
2023-11-20T05:21:45.960Z,13.73
2023-11-20T05:24:13.116Z,13.57
2023-11-20T05:26:40.273Z,18.37
2023-11-20T05:29:08.542Z,17.60
2023-11-20T05:31:35.914Z,20.20
2023-11-20T05:34:03.311Z,19.17
2023-11-20T05:36:30.525Z,17.60
2023-11-20T05:38:57.703Z,18.30
2023-11-20T05:41:24.951Z,17.40
2023-11-20T05:43:52.246Z,20.57
2023-11-20T05:46:19.538Z,14.50
2023-11-20T05:48:46.753Z,22.00
2023-11-20T05:51:20.169Z,22.33
2023-11-20T05:53:47.781Z,20.87
2023-11-20T05:56:15.092Z,20.47
2023-11-20T05:58:42.503Z,20.57
2023-11-20T06:01:10.616Z,22.23
2023-11-20T06:03:37.983Z,17.57
2023-11-20T06:06:05.936Z,16.93
2023-11-20T06:08:33.627Z,22.07
2023-11-20T06:11:00.860Z,21.20
2023-11-20T06:13:28.061Z,22.17
2023-11-20T06:15:55.334Z,18.73
2023-11-20T06:18:22.530Z,23.23
2023-11-20T06:20:50.300Z,21.90
2023-11-20T06:23:17.445Z,22.43
2023-11-20T06:25:44.599Z,22.40
2023-11-20T06:28:11.834Z,24.90
2023-11-20T06:30:39.102Z,26.13
2023-11-20T06:33:06.434Z,21.53
2023-11-20T06:35:33.591Z,26.00
2023-11-20T06:38:00.739Z,25.07
2023-11-20T06:40:28.016Z,23.47
2023-11-20T06:42:55.265Z,29.63
2023-11-20T06:45:22.584Z,19.50
2023-11-20T06:47:49.792Z,24.00
2023-11-20T06:50:17.094Z,22.90
2023-11-20T06:52:44.883Z,22.00
2023-11-20T06:55:12.205Z,20.83
2023-11-20T06:57:39.428Z,23.70
2023-11-20T07:00:07.261Z,28.17
2023-11-20T07:02:34.863Z,36.63
2023-11-20T07:05:03.046Z,40.93
2023-11-20T07:07:30.393Z,35.60
2023-11-20T07:09:59.156Z,35.33
2023-11-20T07:12:26.374Z,43.53
2023-11-20T07:14:53.514Z,34.43
2023-11-20T07:17:20.687Z,30.97
2023-11-20T07:19:47.835Z,32.47
2023-11-20T07:22:15.223Z,32.70
2023-11-20T07:24:44.123Z,37.20
2023-11-20T07:27:11.254Z,43.63
2023-11-20T07:29:38.462Z,56.70
2023-11-20T07:32:05.920Z,48.33
2023-11-20T07:34:33.184Z,62.63
2023-11-20T07:37:00.671Z,73.77
2023-11-20T07:39:27.991Z,83.77
2023-11-20T07:41:55.446Z,78.67
2023-11-20T07:44:22.874Z,52.37
2023-11-20T07:46:50.437Z,37.23
2023-11-20T07:49:17.811Z,44.93
2023-11-20T07:51:45.397Z,51.50
2023-11-20T07:54:12.569Z,64.97
2023-11-20T07:56:39.906Z,81.17
2023-11-20T07:59:07.777Z,122.40
2023-11-20T08:01:35.054Z,105.43
2023-11-20T08:04:03.648Z,85.43
2023-11-20T08:06:31.512Z,49.53
2023-11-20T08:08:59.446Z,39.87
2023-11-20T08:11:26.648Z,34.40
2023-11-20T08:13:53.855Z,23.10
2023-11-20T08:16:21.171Z,37.43
2023-11-20T08:18:49.274Z,48.37
2023-11-20T08:21:16.545Z,76.87
2023-11-20T08:23:44.726Z,53.00
2023-11-20T08:26:11.918Z,42.40
2023-11-20T08:28:39.058Z,36.37
2023-11-20T08:31:07.337Z,31.43
2023-11-20T08:33:34.738Z,30.17
2023-11-20T08:36:02.215Z,24.93
2023-11-20T08:38:29.394Z,28.70
2023-11-20T08:40:56.649Z,27.73
2023-11-20T08:43:24.834Z,24.53
2023-11-20T08:46:00.177Z,28.03
2023-11-20T08:48:33.522Z,24.03
2023-11-20T08:51:01.056Z,27.97
2023-11-20T08:53:28.921Z,26.43
2023-11-20T08:55:57.047Z,19.53
2023-11-20T08:58:24.400Z,18.57
2023-11-20T09:00:51.622Z,23.53
2023-11-20T09:03:19.040Z,20.93
2023-11-20T09:05:46.267Z,26.07
2023-11-20T09:08:13.552Z,21.57
2023-11-20T09:10:40.818Z,21.70
2023-11-20T09:13:10.722Z,29.07
2023-11-20T09:15:38.188Z,18.40
2023-11-20T09:18:05.895Z,22.70
2023-11-20T09:20:34.028Z,18.67
2023-11-20T09:23:01.662Z,18.40
2023-11-20T09:25:30.329Z,21.37
2023-11-20T09:28:00.881Z,20.97
2023-11-20T09:30:28.096Z,32.33
2023-11-20T09:32:55.706Z,46.53
2023-11-20T09:35:22.922Z,35.57
2023-11-20T09:37:50.125Z,49.20
2023-11-20T09:40:17.704Z,29.47
2023-11-20T09:42:46.312Z,24.40
2023-11-20T09:45:26.651Z,21.47
2023-11-20T09:47:55.384Z,20.90
2023-11-20T09:50:23.601Z,22.87
2023-11-20T09:52:51.896Z,18.33
2023-11-20T09:55:20.260Z,28.03
2023-11-20T09:57:47.619Z,29.53
2023-11-20T10:00:20.132Z,27.03
2023-11-20T10:02:48.119Z,20.17
2023-11-20T10:05:35.182Z,17.57
2023-11-20T10:08:03.950Z,16.23
2023-11-20T10:10:32.158Z,17.00
2023-11-20T10:12:59.908Z,20.00
2023-11-20T10:15:27.676Z,18.40
2023-11-20T10:18:00.694Z,14.93
2023-11-20T10:20:29.384Z,15.60
2023-11-20T10:22:57.364Z,16.27
2023-11-20T10:25:24.710Z,14.53
2023-11-20T10:27:54.445Z,13.73
2023-11-20T10:30:23.336Z,16.50
2023-11-20T10:32:50.843Z,14.93
2023-11-20T10:35:18.453Z,20.97
2023-11-20T10:37:52.900Z,19.87
2023-11-20T10:40:20.739Z,15.60
2023-11-20T10:42:48.092Z,13.47
2023-11-20T10:45:15.713Z,13.03
2023-11-20T10:47:44.189Z,14.03
2023-11-20T10:50:12.969Z,14.47
2023-11-20T10:52:41.945Z,13.77
2023-11-20T10:55:12.787Z,15.60
2023-11-20T10:57:40.339Z,16.97
2023-11-20T11:00:12.159Z,18.50
2023-11-20T11:02:44.087Z,19.93
2023-11-20T11:05:13.744Z,21.73
2023-11-20T11:07:42.268Z,17.20
2023-11-20T11:10:12.110Z,15.70
2023-11-20T11:12:43.224Z,14.63
2023-11-20T11:15:17.113Z,19.10
2023-11-20T11:17:51.037Z,16.63
2023-11-20T11:20:23.726Z,17.27
2023-11-20T11:22:59.360Z,17.13
2023-11-20T11:25:29.153Z,15.80
2023-11-20T11:28:00.496Z,19.03
2023-11-20T11:30:32.136Z,19.80
2023-11-20T11:33:02.631Z,19.07
2023-11-20T11:35:35.905Z,15.55
2023-11-20T11:38:19.902Z,16.00
2023-11-20T11:41:02.238Z,15.93
2023-11-20T11:43:36.701Z,15.30
2023-11-20T11:46:05.173Z,17.73
2023-11-20T11:48:35.935Z,19.73
2023-11-20T11:51:06.585Z,17.80
2023-11-20T11:53:33.932Z,16.53
2023-11-20T11:56:05.006Z,14.70
2023-11-20T11:58:38.045Z,14.70
2023-11-20T12:01:18.548Z,15.87
2023-11-20T12:03:46.235Z,16.27
2023-11-20T12:06:14.808Z,18.40
2023-11-20T12:08:42.067Z,20.80
2023-11-20T12:11:11.917Z,18.63
2023-11-20T12:13:59.407Z,18.90
2023-11-20T12:16:37.367Z,17.27
2023-11-20T12:19:05.079Z,16.47
2023-11-20T12:21:32.735Z,18.40
2023-11-20T12:24:00.581Z,22.60
2023-11-20T12:26:28.383Z,21.07
2023-11-20T12:28:56.182Z,24.23
2023-11-20T12:31:23.580Z,21.47
2023-11-20T12:33:51.858Z,20.25
2023-11-20T12:36:25.473Z,25.07
2023-11-20T12:38:54.610Z,22.63
2023-11-20T12:41:24.383Z,22.73
2023-11-20T12:43:51.850Z,19.10
2023-11-20T12:46:22.400Z,20.90
2023-11-20T12:48:49.876Z,22.07
2023-11-20T12:51:17.235Z,24.40
2023-11-20T12:53:45.574Z,16.63
2023-11-20T12:56:13.339Z,17.10
2023-11-20T12:58:41.723Z,17.97
2023-11-20T13:01:09.007Z,15.07
2023-11-20T13:03:37.330Z,16.63
2023-11-20T13:06:05.661Z,18.47
2023-11-20T13:08:33.324Z,15.27
2023-11-20T13:11:01.496Z,17.13
2023-11-20T13:13:29.630Z,19.90
2023-11-20T13:16:01.318Z,20.90
2023-11-20T13:18:30.429Z,25.30
2023-11-20T13:20:58.482Z,22.17
2023-11-20T13:23:26.901Z,20.00
2023-11-20T13:25:55.446Z,19.00
2023-11-20T13:28:28.636Z,17.73
2023-11-20T13:30:57.042Z,17.60
2023-11-20T13:33:25.272Z,17.03
2023-11-20T13:35:52.980Z,15.43
2023-11-20T13:38:20.930Z,14.83
2023-11-20T13:40:48.503Z,15.40
2023-11-20T13:43:15.865Z,16.47
2023-11-20T13:45:43.912Z,15.73
2023-11-20T13:48:15.206Z,17.10
2023-11-20T13:50:44.885Z,22.93
2023-11-20T13:53:13.623Z,45.70
2023-11-20T13:55:45.996Z,34.53
2023-11-20T13:58:16.714Z,35.60
2023-11-20T14:00:44.394Z,29.63
2023-11-20T14:03:14.848Z,22.63
2023-11-20T14:05:44.273Z,21.70
2023-11-20T14:08:13.136Z,16.47
2023-11-20T14:10:41.437Z,14.47
2023-11-20T14:13:09.316Z,19.90
2023-11-20T14:15:36.579Z,16.93
2023-11-20T14:18:05.252Z,15.80
2023-11-20T14:20:32.811Z,17.63
2023-11-20T14:22:59.972Z,16.10
2023-11-20T14:25:30.096Z,15.70
2023-11-20T14:27:57.666Z,17.87
2023-11-20T14:30:25.519Z,14.50
2023-11-20T14:32:53.338Z,20.57
2023-11-20T14:35:20.954Z,21.40
2023-11-20T14:37:48.334Z,19.10
2023-11-20T14:40:17.321Z,19.17
2023-11-20T14:42:45.827Z,22.93
2023-11-20T14:45:14.282Z,24.00
2023-11-20T14:47:42.469Z,22.33
2023-11-20T14:50:10.674Z,23.93
2023-11-20T14:52:39.258Z,30.47
2023-11-20T14:55:10.185Z,28.80
2023-11-20T14:57:37.635Z,32.17
2023-11-20T15:00:08.307Z,27.10
2023-11-20T15:02:35.801Z,33.30
2023-11-20T15:05:04.460Z,27.97
2023-11-20T15:07:31.701Z,29.77
2023-11-20T15:10:01.657Z,27.30
2023-11-20T15:12:29.051Z,26.90
2023-11-20T15:14:56.325Z,27.27
2023-11-20T15:17:23.551Z,28.93
2023-11-20T15:19:51.354Z,27.90
2023-11-20T15:22:18.674Z,27.17
2023-11-20T15:24:45.846Z,27.83
2023-11-20T15:27:13.016Z,28.40
2023-11-20T15:29:42.676Z,32.27
2023-11-20T15:32:09.885Z,35.00
2023-11-20T15:34:37.300Z,35.10
2023-11-20T15:37:05.371Z,31.30
2023-11-20T15:39:33.259Z,37.23
2023-11-20T15:42:01.386Z,41.30
2023-11-20T15:44:28.624Z,40.60
2023-11-20T15:46:56.006Z,50.33
2023-11-20T15:49:23.266Z,49.37
2023-11-20T15:51:50.803Z,48.83
2023-11-20T15:54:18.241Z,42.23
2023-11-20T15:56:49.663Z,44.60
2023-11-20T15:59:17.555Z,54.63
2023-11-20T16:01:52.802Z,56.53
2023-11-20T16:04:21.253Z,59.50
2023-11-20T16:06:50.755Z,58.03
2023-11-20T16:09:18.042Z,44.97
2023-11-20T16:11:46.602Z,38.57
2023-11-20T16:14:15.873Z,38.33
2023-11-20T16:16:47.037Z,40.80
2023-11-20T16:19:14.454Z,37.40
2023-11-20T16:21:42.228Z,32.60
2023-11-20T16:24:10.341Z,38.33
2023-11-20T16:26:38.194Z,57.63
2023-11-20T16:29:05.585Z,78.00
2023-11-20T16:31:33.092Z,91.60
2023-11-20T16:34:03.156Z,59.20
2023-11-20T16:36:30.831Z,59.87
2023-11-20T16:38:59.978Z,47.10
2023-11-20T16:41:27.171Z,54.83
2023-11-20T16:43:55.523Z,51.80
2023-11-20T16:46:28.738Z,57.87
2023-11-20T16:48:57.944Z,43.90
2023-11-20T16:51:25.269Z,38.50
2023-11-20T16:53:52.454Z,39.53
2023-11-20T16:56:19.914Z,48.17
2023-11-20T16:58:47.371Z,40.87
2023-11-20T17:01:15.263Z,40.03
2023-11-20T17:03:43.035Z,38.87
2023-11-20T17:06:10.324Z,35.70
2023-11-20T17:08:37.550Z,37.47
2023-11-20T17:11:05.485Z,32.90
2023-11-20T17:13:32.833Z,30.30
2023-11-20T17:16:00.242Z,32.87
2023-11-20T17:18:27.503Z,34.60
2023-11-20T17:20:54.969Z,31.20
2023-11-20T17:23:22.333Z,34.10
2023-11-20T17:25:49.630Z,34.63
2023-11-20T17:28:16.924Z,35.80
2023-11-20T17:30:44.580Z,29.97
2023-11-20T17:33:13.707Z,29.20
2023-11-20T17:35:41.199Z,30.27
2023-11-20T17:38:08.423Z,29.73
2023-11-20T17:40:36.311Z,64.73
2023-11-20T17:43:05.626Z,73.53
2023-11-20T17:45:34.514Z,80.93
2023-11-20T17:48:01.957Z,110.33
2023-11-20T17:50:29.309Z,93.27
2023-11-20T17:52:56.503Z,117.03
2023-11-20T17:55:23.688Z,105.73
2023-11-20T17:57:51.043Z,127.90
2023-11-20T18:00:19.362Z,159.17
2023-11-20T18:02:46.845Z,162.00
2023-11-20T18:05:14.400Z,139.10
2023-11-20T18:07:41.713Z,175.57
2023-11-20T18:10:12.554Z,186.30
2023-11-20T18:12:40.896Z,194.70
2023-11-20T18:15:08.710Z,175.63
2023-11-20T18:17:36.022Z,177.77
2023-11-20T18:20:05.066Z,116.80
2023-11-20T18:22:33.844Z,107.10
2023-11-20T18:25:01.948Z,101.00
2023-11-20T18:27:30.981Z,64.90
2023-11-20T18:29:58.245Z,54.43
2023-11-20T18:32:25.912Z,44.17
2023-11-20T18:34:53.168Z,40.03
2023-11-20T18:37:20.378Z,25.20
2023-11-20T18:39:47.556Z,25.67
2023-11-20T18:42:15.843Z,29.63
2023-11-20T18:44:43.597Z,25.50
2023-11-20T18:47:11.559Z,28.83
2023-11-20T18:49:42.547Z,28.13
2023-11-20T18:52:10.053Z,29.17
2023-11-20T18:54:39.650Z,32.10
2023-11-20T18:57:10.386Z,38.17
2023-11-20T18:59:38.254Z,36.33
2023-11-20T19:02:06.289Z,33.40
2023-11-20T19:04:33.637Z,31.47
2023-11-20T19:07:02.363Z,36.80
2023-11-20T19:09:29.776Z,47.57
2023-11-20T19:11:56.963Z,50.77
2023-11-20T19:14:24.300Z,54.10
2023-11-20T19:16:51.622Z,55.73
2023-11-20T19:19:19.561Z,50.00
2023-11-20T19:21:46.860Z,47.63
2023-11-20T19:24:14.124Z,69.53
2023-11-20T19:26:41.577Z,135.67
2023-11-20T19:29:08.924Z,149.30
2023-11-20T19:31:36.214Z,100.40
2023-11-20T19:34:03.475Z,108.10
2023-11-20T19:36:30.922Z,130.40
2023-11-20T19:38:58.243Z,154.53
2023-11-20T19:41:25.460Z,103.67
2023-11-20T19:43:52.973Z,85.97
2023-11-20T19:46:20.298Z,90.50
2023-11-20T19:48:51.684Z,55.03
2023-11-20T19:51:18.877Z,55.13
2023-11-20T19:53:47.983Z,53.47
2023-11-20T19:56:15.339Z,48.30
2023-11-20T19:58:44.027Z,52.80
2023-11-20T20:01:12.028Z,46.20
2023-11-20T20:03:39.329Z,75.17
2023-11-20T20:06:08.607Z,85.93
2023-11-20T20:08:36.392Z,99.03
2023-11-20T20:11:04.510Z,75.60
2023-11-20T20:13:31.937Z,75.33
2023-11-20T20:15:59.146Z,79.87
2023-11-20T20:18:26.679Z,70.10
2023-11-20T20:20:54.101Z,65.43
2023-11-20T20:23:21.534Z,66.50
2023-11-20T20:25:49.139Z,57.87
2023-11-20T20:28:16.711Z,58.40
2023-11-20T20:30:44.733Z,53.30
2023-11-20T20:33:12.129Z,60.57
2023-11-20T20:35:39.454Z,49.83
2023-11-20T20:38:06.736Z,58.60
2023-11-20T20:40:34.114Z,73.13
2023-11-20T20:43:01.574Z,79.40
2023-11-20T20:45:29.941Z,77.63
2023-11-20T20:47:57.445Z,84.23
2023-11-20T20:50:24.695Z,76.77
2023-11-20T20:52:52.318Z,86.97
2023-11-20T20:55:19.726Z,80.43
2023-11-20T20:57:47.916Z,75.93
2023-11-20T21:00:15.789Z,70.90
2023-11-20T21:02:46.169Z,71.23
2023-11-20T21:05:15.636Z,66.77
2023-11-20T21:07:43.295Z,63.80
2023-11-20T21:10:11.920Z,71.23
2023-11-20T21:12:39.137Z,75.83
2023-11-20T21:15:07.386Z,73.27
2023-11-20T21:17:34.676Z,61.87
2023-11-20T21:20:05.266Z,63.60
2023-11-20T21:22:36.506Z,68.07
2023-11-20T21:25:04.776Z,55.70
2023-11-20T21:27:32.067Z,53.80
2023-11-20T21:29:59.319Z,73.50
2023-11-20T21:32:29.092Z,55.90
2023-11-20T21:35:02.516Z,57.87
2023-11-20T21:37:31.913Z,58.17
2023-11-20T21:39:59.312Z,69.37
2023-11-20T21:42:26.873Z,60.60
2023-11-20T21:44:54.485Z,61.30
2023-11-20T21:47:21.831Z,56.07
2023-11-20T21:49:49.015Z,52.83
2023-11-20T21:52:16.596Z,51.60
2023-11-20T21:54:44.031Z,59.73
2023-11-20T21:57:12.446Z,62.27
2023-11-20T21:59:41.919Z,67.50
2023-11-20T22:02:09.350Z,67.77
2023-11-20T22:04:36.782Z,54.30
2023-11-20T22:07:06.803Z,59.37
2023-11-20T22:09:33.988Z,55.77
2023-11-20T22:12:01.329Z,51.20
2023-11-20T22:14:28.490Z,56.13
2023-11-20T22:16:55.692Z,73.13
2023-11-20T22:19:22.973Z,63.97
2023-11-20T22:21:50.217Z,67.63
2023-11-20T22:24:17.462Z,64.17
2023-11-20T22:26:44.690Z,67.67
2023-11-20T22:29:12.898Z,78.40
2023-11-20T22:31:40.214Z,85.53
2023-11-20T22:34:08.117Z,89.80
2023-11-20T22:36:36.079Z,98.83
2023-11-20T22:39:03.712Z,103.47
2023-11-20T22:41:31.544Z,88.93
2023-11-20T22:43:58.927Z,78.77
2023-11-20T22:46:26.374Z,103.40
2023-11-20T22:48:53.893Z,85.30
2023-11-20T22:51:21.090Z,103.17
2023-11-20T22:53:48.247Z,95.93
2023-11-20T22:56:15.746Z,82.17
2023-11-20T22:58:42.941Z,72.33
2023-11-20T23:01:10.591Z,75.03
2023-11-20T23:03:38.508Z,76.77
2023-11-20T23:06:07.095Z,83.50
2023-11-20T23:08:38.023Z,85.37
2023-11-20T23:11:08.653Z,63.77
2023-11-20T23:13:36.035Z,76.67
2023-11-20T23:16:03.242Z,68.73
2023-11-20T23:18:30.646Z,70.53
2023-11-20T23:20:58.841Z,84.70
2023-11-20T23:23:27.812Z,79.47
2023-11-20T23:25:55.065Z,67.23
2023-11-20T23:28:22.299Z,67.17
2023-11-20T23:30:49.662Z,65.07
2023-11-20T23:33:17.361Z,71.20
2023-11-20T23:35:44.608Z,82.50
2023-11-20T23:38:12.021Z,88.90
2023-11-20T23:40:42.029Z,69.50
2023-11-20T23:43:09.428Z,77.03
2023-11-20T23:45:36.828Z,65.37
2023-11-20T23:48:04.246Z,51.40
2023-11-20T23:50:31.814Z,62.00
2023-11-20T23:52:58.978Z,56.00
2023-11-20T23:55:26.156Z,55.13
2023-11-20T23:57:53.447Z,55.97
